createdAt,value
2023-01-18T00:01:02.202Z,15.60
2023-01-18T00:03:52.963Z,8.80
2023-01-18T00:06:41.702Z,11.17
2023-01-18T00:09:30.158Z,8.53
2023-01-18T00:12:18.606Z,11.00
2023-01-18T00:15:08.486Z,8.90
2023-01-18T00:17:57.004Z,8.10
2023-01-18T00:20:46.803Z,10.93
2023-01-18T00:23:35.620Z,9.37
2023-01-18T00:26:24.123Z,8.40
2023-01-18T00:29:12.548Z,9.37
2023-01-18T00:32:01.009Z,8.60
2023-01-18T00:34:50.597Z,9.50
2023-01-18T00:37:40.968Z,8.10
2023-01-18T00:40:30.239Z,9.07
2023-01-18T00:43:35.993Z,9.07
2023-01-18T00:46:27.208Z,8.50
2023-01-18T00:49:15.629Z,8.33
2023-01-18T00:52:04.385Z,12.03
2023-01-18T00:54:54.206Z,9.97
2023-01-18T00:57:42.883Z,12.17
2023-01-18T01:00:32.555Z,18.13
2023-01-18T01:03:21.875Z,9.90
2023-01-18T01:06:32.763Z,11.00
2023-01-18T01:09:23.250Z,14.33
2023-01-18T01:12:30.648Z,10.90
2023-01-18T01:15:36.729Z,10.40
2023-01-18T01:18:43.025Z,15.70
2023-01-18T01:21:49.185Z,12.40
2023-01-18T01:24:55.233Z,10.60
2023-01-18T01:27:45.048Z,10.63
2023-01-18T01:30:33.518Z,13.50
2023-01-18T01:33:22.032Z,13.20
2023-01-18T01:36:13.321Z,13.70
2023-01-18T01:39:01.807Z,13.70
2023-01-18T01:41:50.432Z,14.20
2023-01-18T01:44:47.674Z,12.63
2023-01-18T01:47:38.880Z,14.57
2023-01-18T01:50:30.031Z,16.97
2023-01-18T01:53:18.492Z,12.30
2023-01-18T01:56:07.588Z,14.70
2023-01-18T01:58:58.071Z,14.20
2023-01-18T02:01:48.397Z,14.03
2023-01-18T02:04:37.141Z,15.40
2023-01-18T02:07:28.745Z,13.57
2023-01-18T02:10:17.543Z,12.87
2023-01-18T02:13:06.535Z,15.57
2023-01-18T02:16:01.226Z,13.33
2023-01-18T02:18:56.326Z,10.87
2023-01-18T02:21:45.700Z,13.50
2023-01-18T02:24:58.943Z,11.63
2023-01-18T02:27:52.530Z,11.00
2023-01-18T02:30:44.467Z,10.60
2023-01-18T02:33:36.876Z,10.30
2023-01-18T02:36:28.618Z,9.87
2023-01-18T02:39:31.822Z,10.73
2023-01-18T02:42:38.935Z,10.97
2023-01-18T02:45:49.622Z,10.73
2023-01-18T02:48:41.613Z,9.57
2023-01-18T02:51:30.110Z,10.33
2023-01-18T02:54:24.351Z,12.10
2023-01-18T02:57:14.595Z,10.53
2023-01-18T03:00:04.796Z,10.00
2023-01-18T03:02:55.592Z,11.03
2023-01-18T03:05:47.304Z,11.50
2023-01-18T03:08:39.830Z,11.60
2023-01-18T03:11:35.358Z,9.00
2023-01-18T03:14:31.690Z,10.07
2023-01-18T03:17:23.479Z,11.17
2023-01-18T03:20:14.672Z,10.37
2023-01-18T03:23:24.804Z,10.90
2023-01-18T03:26:16.380Z,10.73
2023-01-18T03:29:23.365Z,9.40
2023-01-18T03:32:31.995Z,12.43
2023-01-18T03:35:26.702Z,9.93
2023-01-18T03:38:17.231Z,10.23
2023-01-18T03:41:06.584Z,10.70
2023-01-18T03:43:57.777Z,12.67
2023-01-18T03:46:46.320Z,10.63
2023-01-18T03:49:35.529Z,10.33
2023-01-18T03:52:26.185Z,12.53
2023-01-18T03:55:20.476Z,14.63
2023-01-18T03:58:11.147Z,13.77
2023-01-18T04:01:00.001Z,14.87
2023-01-18T04:03:48.605Z,17.40
2023-01-18T04:06:37.353Z,16.10
2023-01-18T04:09:26.054Z,17.03
2023-01-18T04:12:15.820Z,21.87
2023-01-18T04:15:05.447Z,20.23
2023-01-18T04:17:55.868Z,20.93
2023-01-18T04:20:44.411Z,22.17
2023-01-18T04:23:32.873Z,19.77
2023-01-18T04:26:21.343Z,19.60
2023-01-18T04:29:11.133Z,22.70
2023-01-18T04:31:59.545Z,25.00
2023-01-18T04:34:48.008Z,17.40
2023-01-18T04:37:38.395Z,18.43
2023-01-18T04:40:26.843Z,23.00
2023-01-18T04:43:15.355Z,17.93
2023-01-18T04:46:05.438Z,21.60
2023-01-18T04:48:53.915Z,19.40
2023-01-18T04:51:43.137Z,21.50
2023-01-18T04:54:31.735Z,22.50
2023-01-18T04:57:20.334Z,21.60
2023-01-18T05:00:10.441Z,22.37
2023-01-18T05:03:00.630Z,21.90
2023-01-18T05:05:49.242Z,23.10
2023-01-18T05:08:40.860Z,22.50
2023-01-18T05:11:29.311Z,19.00
2023-01-18T05:14:17.916Z,25.83
2023-01-18T05:17:07.291Z,26.30
2023-01-18T05:19:57.321Z,22.53
2023-01-18T05:22:45.922Z,21.57
2023-01-18T05:25:34.355Z,24.30
2023-01-18T05:28:23.456Z,27.10
2023-01-18T05:31:12.021Z,21.33
2023-01-18T05:34:00.609Z,27.43
2023-01-18T05:36:50.452Z,22.40
2023-01-18T05:39:38.910Z,24.37
2023-01-18T05:42:27.361Z,23.03
2023-01-18T05:45:16.205Z,20.17
2023-01-18T05:48:04.962Z,23.40
2023-01-18T05:50:53.666Z,21.43
2023-01-18T05:53:43.529Z,18.50
2023-01-18T05:56:32.949Z,20.47
2023-01-18T05:59:21.419Z,24.30
2023-01-18T06:02:09.964Z,22.37
2023-01-18T06:04:58.475Z,22.90
2023-01-18T06:07:47.715Z,17.43
2023-01-18T06:10:37.519Z,16.97
2023-01-18T06:13:28.903Z,17.70
2023-01-18T06:16:17.416Z,18.13
2023-01-18T06:19:05.888Z,17.87
2023-01-18T06:21:54.401Z,18.43
2023-01-18T06:24:42.898Z,18.67
2023-01-18T06:27:32.728Z,15.70
2023-01-18T06:30:21.332Z,18.17
2023-01-18T06:33:09.855Z,18.43
2023-01-18T06:35:58.389Z,18.50
2023-01-18T06:38:46.877Z,16.83
2023-01-18T06:41:35.353Z,19.13
2023-01-18T06:44:25.563Z,14.47
2023-01-18T06:47:15.455Z,16.10
2023-01-18T06:50:04.128Z,13.57
2023-01-18T06:52:52.616Z,13.67
2023-01-18T06:55:41.069Z,17.87
2023-01-18T06:58:31.044Z,17.20
2023-01-18T07:01:21.050Z,15.93
2023-01-18T07:04:09.611Z,19.23
2023-01-18T07:06:58.140Z,20.60
2023-01-18T07:09:46.682Z,18.37
2023-01-18T07:12:35.662Z,17.07
2023-01-18T07:15:24.095Z,17.13
2023-01-18T07:18:13.842Z,18.90
2023-01-18T07:21:03.539Z,17.93
2023-01-18T07:23:52.408Z,19.53
2023-01-18T07:26:40.857Z,24.00
2023-01-18T07:29:29.382Z,20.63
2023-01-18T07:32:17.864Z,23.13
2023-01-18T07:35:08.490Z,18.47
2023-01-18T07:37:56.933Z,20.57
2023-01-18T07:40:46.654Z,17.43
2023-01-18T07:43:37.399Z,22.30
2023-01-18T07:46:26.308Z,20.20
2023-01-18T07:49:15.549Z,16.43
2023-01-18T07:52:05.861Z,16.97
2023-01-18T07:54:54.363Z,23.33
2023-01-18T07:57:43.432Z,21.23
2023-01-18T08:00:32.004Z,18.73
2023-01-18T08:03:20.903Z,20.20
2023-01-18T08:06:09.744Z,15.77
2023-01-18T08:08:59.616Z,18.40
2023-01-18T08:11:48.171Z,15.83
2023-01-18T08:14:36.834Z,17.07
2023-01-18T08:17:25.353Z,15.93
2023-01-18T08:20:15.432Z,15.20
2023-01-18T08:23:04.747Z,14.20
2023-01-18T08:25:55.436Z,13.57
2023-01-18T08:28:44.777Z,16.17
2023-01-18T08:31:33.384Z,16.40
2023-01-18T08:34:22.762Z,15.60
2023-01-18T08:37:11.987Z,17.27
2023-01-18T08:40:00.448Z,17.73
2023-01-18T08:42:50.771Z,14.87
2023-01-18T08:45:39.311Z,14.40
2023-01-18T08:48:27.805Z,15.70
2023-01-18T08:51:17.993Z,15.40
2023-01-18T08:54:06.555Z,18.33
2023-01-18T08:56:55.188Z,17.23
2023-01-18T08:59:44.994Z,17.57
2023-01-18T09:02:33.587Z,20.30
2023-01-18T09:05:22.157Z,19.80
2023-01-18T09:08:10.624Z,19.17
2023-01-18T09:11:02.272Z,17.80
2023-01-18T09:14:00.646Z,17.87
2023-01-18T09:16:51.117Z,19.70
2023-01-18T09:19:39.598Z,19.97
2023-01-18T09:22:28.146Z,17.40
2023-01-18T09:25:18.021Z,20.07
2023-01-18T09:28:06.794Z,18.70
2023-01-18T09:30:55.791Z,21.73
2023-01-18T09:33:52.771Z,17.37
2023-01-18T09:36:42.297Z,16.23
2023-01-18T09:39:35.297Z,18.30
2023-01-18T09:42:33.230Z,15.43
2023-01-18T09:45:29.459Z,15.23
2023-01-18T09:48:31.161Z,15.00
2023-01-18T09:51:23.465Z,16.90
2023-01-18T09:54:18.427Z,19.03
2023-01-18T09:57:11.311Z,17.00
2023-01-18T10:00:00.973Z,16.90
2023-01-18T10:02:53.187Z,17.63
2023-01-18T10:05:45.376Z,19.10
2023-01-18T10:08:37.385Z,16.03
2023-01-18T10:11:33.000Z,15.67
2023-01-18T10:14:29.465Z,16.60
2023-01-18T10:17:20.659Z,19.30
2023-01-18T10:20:16.894Z,19.37
2023-01-18T10:23:11.230Z,15.43
2023-01-18T10:26:04.576Z,14.67
2023-01-18T10:28:58.998Z,19.20
2023-01-18T10:31:53.685Z,17.00
2023-01-18T10:34:45.033Z,17.30
2023-01-18T10:37:38.919Z,15.50
2023-01-18T10:40:27.746Z,18.80
2023-01-18T10:43:20.525Z,17.00
2023-01-18T10:46:14.660Z,17.63
2023-01-18T10:49:04.421Z,18.87
2023-01-18T10:51:52.933Z,18.40
2023-01-18T10:54:41.692Z,19.40
2023-01-18T10:57:32.164Z,18.47
2023-01-18T11:00:33.019Z,16.27
2023-01-18T11:03:22.589Z,17.87
2023-01-18T11:06:11.152Z,17.10
2023-01-18T11:08:59.941Z,17.13
2023-01-18T11:12:06.167Z,17.70
2023-01-18T11:14:54.617Z,15.90
2023-01-18T11:17:46.704Z,18.57
2023-01-18T11:20:38.156Z,14.70
2023-01-18T11:23:28.020Z,14.40
2023-01-18T11:26:19.091Z,17.37
2023-01-18T11:29:08.156Z,13.33
2023-01-18T11:31:57.292Z,13.00
2023-01-18T11:34:51.674Z,13.23
2023-01-18T11:37:43.513Z,11.60
2023-01-18T11:40:34.391Z,11.33
2023-01-18T11:43:24.517Z,11.37
2023-01-18T11:46:34.713Z,10.27
2023-01-18T11:49:30.552Z,9.43
2023-01-18T11:52:27.435Z,9.90
2023-01-18T11:55:26.431Z,11.20
2023-01-18T11:58:28.277Z,9.37
2023-01-18T12:01:46.787Z,7.23
2023-01-18T12:04:44.551Z,11.57
2023-01-18T12:07:44.474Z,7.40
2023-01-18T12:10:51.953Z,8.57
2023-01-18T12:13:43.429Z,13.77
2023-01-18T12:16:45.795Z,8.80
2023-01-18T12:19:53.519Z,7.80
2023-01-18T12:23:04.951Z,12.47
2023-01-18T12:26:12.255Z,7.93
2023-01-18T12:29:17.480Z,6.00
2023-01-18T12:32:15.836Z,8.50
2023-01-18T12:35:24.567Z,6.10
2023-01-18T12:38:19.809Z,8.07
2023-01-18T12:41:32.666Z,6.13
2023-01-18T12:44:43.524Z,4.97
2023-01-18T12:47:36.331Z,4.97
2023-01-18T12:50:26.506Z,5.47
2023-01-18T12:53:20.855Z,9.43
2023-01-18T12:56:13.017Z,7.80
2023-01-18T12:59:03.921Z,4.43
2023-01-18T13:01:56.173Z,5.00
2023-01-18T13:04:47.510Z,6.10
2023-01-18T13:07:40.215Z,4.63
2023-01-18T13:10:30.199Z,8.40
2023-01-18T13:13:20.992Z,5.43
2023-01-18T13:16:29.153Z,4.40
2023-01-18T13:19:21.620Z,5.23
2023-01-18T13:22:16.560Z,5.93
2023-01-18T13:25:26.281Z,6.40
2023-01-18T13:28:21.061Z,6.33
2023-01-18T13:31:09.586Z,7.00
2023-01-18T13:33:58.401Z,8.17
2023-01-18T13:36:47.463Z,7.00
2023-01-18T13:39:45.387Z,5.80
2023-01-18T13:42:36.818Z,5.67
2023-01-18T13:45:28.459Z,6.50
2023-01-18T13:48:41.813Z,5.77
2023-01-18T13:51:57.202Z,5.47
2023-01-18T13:55:05.364Z,8.07
2023-01-18T13:57:58.154Z,5.57
2023-01-18T14:00:51.255Z,5.67
2023-01-18T14:03:44.221Z,6.60
2023-01-18T14:06:36.013Z,5.00
2023-01-18T14:09:35.550Z,5.67
2023-01-18T14:12:48.403Z,7.00
2023-01-18T14:15:52.511Z,6.20
2023-01-18T14:18:49.815Z,6.40
2023-01-18T14:21:55.115Z,6.37
2023-01-18T14:24:57.936Z,8.20
2023-01-18T14:27:49.240Z,9.30
2023-01-18T14:30:41.033Z,14.50
2023-01-18T14:33:33.807Z,9.40
2023-01-18T14:36:24.514Z,7.97
2023-01-18T14:39:17.098Z,6.97
2023-01-18T14:42:06.252Z,7.00
2023-01-18T14:44:58.858Z,7.83
2023-01-18T14:47:48.419Z,8.37
2023-01-18T14:50:41.367Z,6.93
2023-01-18T14:53:31.689Z,6.10
2023-01-18T14:56:22.850Z,6.67
2023-01-18T14:59:31.004Z,6.30
2023-01-18T15:02:23.835Z,6.43
2023-01-18T15:05:13.387Z,7.00
2023-01-18T15:08:03.238Z,7.40
2023-01-18T15:10:51.873Z,7.90
2023-01-18T15:13:47.430Z,7.00
2023-01-18T15:16:36.287Z,9.77
2023-01-18T15:19:26.019Z,6.83
2023-01-18T15:22:16.979Z,11.20
2023-01-18T15:25:09.031Z,9.63
2023-01-18T15:28:01.958Z,8.60
2023-01-18T15:30:57.467Z,8.57
2023-01-18T15:33:46.557Z,8.43
2023-01-18T15:36:35.532Z,8.03
2023-01-18T15:39:24.353Z,8.63
2023-01-18T15:42:15.800Z,11.03
2023-01-18T15:45:04.635Z,9.57
2023-01-18T15:47:55.184Z,8.63
2023-01-18T15:50:45.699Z,10.50
2023-01-18T15:53:36.699Z,9.00
2023-01-18T15:56:27.126Z,14.37
2023-01-18T15:59:20.590Z,13.30
2023-01-18T16:02:18.021Z,9.90
2023-01-18T16:05:16.809Z,10.83
2023-01-18T16:08:20.715Z,9.97
2023-01-18T16:11:27.327Z,11.27
2023-01-18T16:14:27.265Z,10.37
2023-01-18T16:17:17.984Z,10.23
2023-01-18T16:20:16.305Z,15.57
2023-01-18T16:23:08.882Z,17.93
2023-01-18T16:26:01.402Z,20.20
2023-01-18T16:28:51.690Z,15.57
2023-01-18T16:31:43.660Z,15.03
2023-01-18T16:34:32.184Z,13.57
2023-01-18T16:37:20.652Z,13.43
2023-01-18T16:40:13.392Z,12.33
2023-01-18T16:43:03.292Z,12.37
2023-01-18T16:45:53.074Z,21.43
2023-01-18T16:48:43.010Z,18.93
2023-01-18T16:51:31.459Z,22.97
2023-01-18T16:54:20.060Z,16.17
2023-01-18T16:57:08.666Z,14.17
2023-01-18T16:59:57.144Z,17.57
2023-01-18T17:02:45.792Z,17.93
2023-01-18T17:05:35.746Z,16.37
2023-01-18T17:08:24.448Z,15.93
2023-01-18T17:11:13.934Z,13.70
2023-01-18T17:14:02.396Z,17.60
2023-01-18T17:16:50.939Z,19.73
2023-01-18T17:19:41.587Z,18.13
2023-01-18T17:22:31.441Z,15.30
2023-01-18T17:25:20.775Z,16.67
2023-01-18T17:28:11.903Z,17.90
2023-01-18T17:31:00.462Z,15.80
2023-01-18T17:33:48.960Z,18.30
2023-01-18T17:36:37.445Z,21.37
2023-01-18T17:39:37.441Z,16.90
2023-01-18T17:42:32.653Z,19.40
2023-01-18T17:45:21.180Z,17.90
2023-01-18T17:48:09.962Z,15.30
2023-01-18T17:50:58.565Z,19.40
2023-01-18T17:53:47.341Z,19.93
2023-01-18T17:56:37.817Z,19.13
2023-01-18T17:59:26.330Z,22.07
2023-01-18T18:02:14.877Z,19.03
2023-01-18T18:05:04.030Z,19.67
2023-01-18T18:07:52.507Z,24.80
2023-01-18T18:10:43.229Z,24.07
2023-01-18T18:13:33.352Z,27.93
2023-01-18T18:16:23.947Z,22.40
2023-01-18T18:19:14.404Z,19.70
2023-01-18T18:22:02.975Z,19.60
2023-01-18T18:24:51.815Z,26.83
2023-01-18T18:27:47.801Z,20.97
2023-01-18T18:30:37.685Z,24.60
2023-01-18T18:33:27.648Z,23.37
2023-01-18T18:36:16.109Z,38.17
2023-01-18T18:39:05.470Z,30.87
2023-01-18T18:41:54.382Z,25.83
2023-01-18T18:44:43.019Z,24.93
2023-01-18T18:47:32.994Z,24.97
2023-01-18T18:50:21.507Z,32.30
2023-01-18T18:53:10.334Z,32.50
2023-01-18T18:55:59.677Z,33.63
2023-01-18T18:58:48.838Z,29.13
2023-01-18T19:01:37.447Z,31.87
2023-01-18T19:04:27.796Z,31.33
2023-01-18T19:07:17.084Z,26.10
2023-01-18T19:10:06.935Z,27.67
2023-01-18T19:12:55.931Z,24.63
2023-01-18T19:15:46.822Z,22.47
2023-01-18T19:18:35.738Z,23.17
2023-01-18T19:21:25.807Z,23.67
2023-01-18T19:24:14.279Z,20.00
2023-01-18T19:27:02.887Z,20.73
2023-01-18T19:29:53.118Z,23.63
2023-01-18T19:32:41.942Z,21.07
2023-01-18T19:35:31.124Z,20.73
2023-01-18T19:38:21.037Z,17.97
2023-01-18T19:41:09.796Z,15.60
2023-01-18T19:43:58.300Z,17.90
2023-01-18T19:46:46.956Z,17.37
2023-01-18T19:49:35.458Z,17.37
2023-01-18T19:52:24.426Z,16.97
2023-01-18T19:55:14.392Z,15.83
2023-01-18T19:58:03.195Z,21.03
2023-01-18T20:00:51.806Z,16.33
2023-01-18T20:03:40.601Z,14.97
2023-01-18T20:06:29.094Z,15.47
2023-01-18T20:09:21.173Z,15.17
2023-01-18T20:12:13.822Z,16.80
2023-01-18T20:15:02.406Z,17.70
2023-01-18T20:17:50.950Z,14.80
2023-01-18T20:20:39.485Z,13.37
2023-01-18T20:23:27.902Z,13.20
2023-01-18T20:26:31.110Z,15.00
2023-01-18T20:29:30.248Z,18.27
2023-01-18T20:32:18.816Z,16.40
2023-01-18T20:35:07.821Z,16.33
2023-01-18T20:37:56.452Z,13.37
2023-01-18T20:40:45.287Z,16.63
2023-01-18T20:43:33.767Z,16.70
2023-01-18T20:46:23.605Z,19.53
2023-01-18T20:49:12.107Z,20.20
2023-01-18T20:52:00.559Z,16.07
2023-01-18T20:54:49.145Z,15.97
2023-01-18T20:57:37.678Z,16.83
2023-01-18T21:00:26.162Z,20.90
2023-01-18T21:03:17.868Z,22.00
2023-01-18T21:06:06.934Z,19.57
2023-01-18T21:08:57.305Z,18.63
2023-01-18T21:11:45.874Z,18.13
2023-01-18T21:14:34.335Z,19.50
2023-01-18T21:17:22.800Z,19.80
2023-01-18T21:20:13.715Z,14.30
2023-01-18T21:23:02.667Z,17.63
2023-01-18T21:25:51.649Z,17.70
2023-01-18T21:28:40.326Z,16.87
2023-01-18T21:31:28.953Z,16.03
2023-01-18T21:34:17.507Z,17.60
2023-01-18T21:37:07.455Z,16.33
2023-01-18T21:39:58.181Z,14.30
2023-01-18T21:43:04.404Z,15.90
2023-01-18T21:45:56.724Z,18.87
2023-01-18T21:48:45.221Z,16.13
2023-01-18T21:51:51.486Z,17.60
2023-01-18T21:54:41.266Z,14.73
2023-01-18T21:57:29.732Z,17.90
2023-01-18T22:00:18.983Z,18.90
2023-01-18T22:03:09.538Z,19.17
2023-01-18T22:05:58.149Z,19.87
2023-01-18T22:08:46.582Z,23.23
2023-01-18T22:11:36.477Z,19.63
2023-01-18T22:14:25.646Z,17.60
2023-01-18T22:17:14.179Z,19.37
2023-01-18T22:20:05.749Z,14.07
2023-01-18T22:22:55.740Z,18.10
2023-01-18T22:25:44.153Z,20.13
2023-01-18T22:28:34.054Z,16.63
2023-01-18T22:31:22.664Z,18.13
2023-01-18T22:34:18.148Z,16.10
2023-01-18T22:37:06.706Z,16.13
2023-01-18T22:39:55.212Z,13.17
2023-01-18T22:42:44.428Z,19.90
2023-01-18T22:45:34.304Z,13.63
2023-01-18T22:48:22.856Z,16.00
2023-01-18T22:51:14.702Z,17.80
2023-01-18T22:54:03.210Z,16.73
2023-01-18T22:56:51.687Z,15.60
2023-01-18T22:59:40.203Z,15.20
2023-01-18T23:02:30.415Z,16.27
2023-01-18T23:05:19.040Z,18.10
2023-01-18T23:08:08.843Z,14.67
2023-01-18T23:10:57.502Z,20.27
2023-01-18T23:14:08.938Z,16.23
2023-01-18T23:17:14.795Z,14.80
2023-01-18T23:20:05.133Z,17.20
2023-01-18T23:22:53.579Z,19.30
2023-01-18T23:25:42.043Z,14.83
2023-01-18T23:28:42.044Z,15.90
2023-01-18T23:31:30.609Z,14.30
2023-01-18T23:34:19.173Z,16.30
2023-01-18T23:37:09.023Z,16.57
2023-01-18T23:40:15.306Z,15.93
2023-01-18T23:43:21.324Z,17.10
2023-01-18T23:46:27.480Z,15.63
2023-01-18T23:49:33.863Z,15.00
2023-01-18T23:52:41.011Z,13.03
2023-01-18T23:55:29.435Z,15.00
2023-01-18T23:58:17.984Z,15.00
